createdAt,value
2018-09-20T00:01:00.494Z,18.50
2018-09-20T00:03:30.000Z,18.50
2018-09-20T00:05:58.869Z,18.40
2018-09-20T00:08:28.230Z,18.40
2018-09-20T00:10:57.172Z,18.30
2018-09-20T00:13:26.103Z,18.30
2018-09-20T00:15:55.064Z,18.30
2018-09-20T00:18:24.352Z,18.20
2018-09-20T00:20:53.280Z,18.20
2018-09-20T00:23:22.382Z,18.20
2018-09-20T00:25:51.478Z,18.20
2018-09-20T00:28:20.353Z,18.10
2018-09-20T00:30:49.881Z,18.10
2018-09-20T00:33:18.771Z,18.00
2018-09-20T00:35:47.787Z,18.00
2018-09-20T00:38:16.877Z,17.90
2018-09-20T00:40:45.799Z,17.90
2018-09-20T00:43:14.703Z,17.90
2018-09-20T00:45:43.665Z,17.90
2018-09-20T00:48:12.549Z,17.90
2018-09-20T00:50:42.373Z,17.90
2018-09-20T00:53:11.354Z,17.90
2018-09-20T00:55:40.255Z,17.90
2018-09-20T00:58:09.139Z,17.80
2018-09-20T01:00:38.116Z,17.80
2018-09-20T01:03:07.015Z,17.80
2018-09-20T01:05:35.914Z,17.80
2018-09-20T01:08:05.445Z,17.80
2018-09-20T01:10:34.361Z,17.80
2018-09-20T01:13:03.344Z,17.70
2018-09-20T01:15:32.307Z,17.70
2018-09-20T01:18:01.771Z,17.80
2018-09-20T01:20:30.996Z,17.80
2018-09-20T01:23:00.571Z,17.80
2018-09-20T01:25:29.839Z,17.80
2018-09-20T01:27:59.002Z,17.80
2018-09-20T01:30:27.951Z,17.70
2018-09-20T01:32:56.855Z,17.70
2018-09-20T01:35:25.848Z,17.70
2018-09-20T01:37:54.811Z,17.60
2018-09-20T01:40:24.025Z,17.60
2018-09-20T01:42:52.925Z,17.60
2018-09-20T01:45:21.875Z,17.60
2018-09-20T01:47:50.854Z,17.60
2018-09-20T01:50:19.763Z,17.50
2018-09-20T01:52:48.696Z,17.50
2018-09-20T01:55:17.592Z,17.50
2018-09-20T01:57:46.526Z,17.40
2018-09-20T02:00:15.502Z,17.40
2018-09-20T02:02:44.401Z,17.40
2018-09-20T02:05:13.369Z,17.40
2018-09-20T02:07:42.296Z,17.40
2018-09-20T02:10:11.731Z,17.30
2018-09-20T02:12:41.094Z,17.30
2018-09-20T02:15:10.091Z,17.30
2018-09-20T02:17:39.947Z,17.20
2018-09-20T02:20:08.840Z,17.20
2018-09-20T02:22:37.859Z,17.20
2018-09-20T02:25:07.462Z,17.20
2018-09-20T02:27:36.390Z,17.20
2018-09-20T02:30:05.759Z,17.20
2018-09-20T02:32:35.107Z,17.10
2018-09-20T02:35:04.053Z,17.10
2018-09-20T02:37:32.987Z,17.10
2018-09-20T02:40:02.380Z,17.20
2018-09-20T02:42:31.293Z,17.20
2018-09-20T02:45:00.234Z,17.20
2018-09-20T02:47:29.606Z,17.20
2018-09-20T02:49:58.692Z,17.10
2018-09-20T02:52:28.406Z,17.10
2018-09-20T02:54:57.418Z,17.10
2018-09-20T02:57:26.385Z,17.10
2018-09-20T02:59:55.323Z,17.10
2018-09-20T03:02:24.199Z,17.10
2018-09-20T03:04:53.067Z,17.00
2018-09-20T03:07:22.062Z,17.00
2018-09-20T03:09:50.941Z,17.00
2018-09-20T03:12:19.868Z,17.00
2018-09-20T03:14:48.834Z,17.00
2018-09-20T03:17:17.760Z,17.00
2018-09-20T03:19:46.665Z,17.00
2018-09-20T03:22:15.713Z,17.00
2018-09-20T03:24:44.627Z,17.00
2018-09-20T03:27:14.051Z,17.00
2018-09-20T03:29:43.015Z,16.90
2018-09-20T03:32:11.941Z,16.90
2018-09-20T03:34:40.832Z,16.80
2018-09-20T03:37:09.797Z,16.90
2018-09-20T03:39:38.687Z,16.90
2018-09-20T03:42:07.655Z,16.80
2018-09-20T03:44:36.997Z,16.80
2018-09-20T03:47:06.175Z,16.80
2018-09-20T03:49:35.475Z,16.70
2018-09-20T03:52:04.503Z,16.80
2018-09-20T03:54:33.399Z,16.70
2018-09-20T03:57:02.320Z,16.80
2018-09-20T03:59:31.354Z,16.70
2018-09-20T04:02:00.572Z,16.70
2018-09-20T04:04:29.968Z,16.70
2018-09-20T04:06:58.988Z,16.70
2018-09-20T04:09:28.441Z,16.70
2018-09-20T04:11:57.357Z,16.70
2018-09-20T04:14:26.444Z,16.70
2018-09-20T04:16:56.371Z,16.60
2018-09-20T04:19:25.348Z,16.60
2018-09-20T04:21:54.298Z,16.60
2018-09-20T04:24:23.189Z,16.60
2018-09-20T04:26:52.104Z,16.50
2018-09-20T04:29:21.494Z,16.50
2018-09-20T04:31:50.393Z,16.50
2018-09-20T04:34:19.722Z,16.50
2018-09-20T04:36:48.681Z,16.50
2018-09-20T04:39:17.663Z,16.50
2018-09-20T04:41:46.552Z,16.50
2018-09-20T04:44:15.815Z,16.50
2018-09-20T04:46:44.735Z,16.50
2018-09-20T04:49:13.631Z,16.60
2018-09-20T04:51:42.653Z,16.60
2018-09-20T04:54:12.352Z,16.70
2018-09-20T04:56:41.230Z,16.80
2018-09-20T04:59:10.143Z,16.80
2018-09-20T05:01:39.669Z,16.90
2018-09-20T05:04:08.740Z,17.00
2018-09-20T05:06:38.886Z,17.20
2018-09-20T05:09:10.772Z,17.40
2018-09-20T05:11:39.839Z,17.60
2018-09-20T05:14:08.917Z,17.90
2018-09-20T05:16:37.839Z,18.30
2018-09-20T05:19:07.759Z,18.70
2018-09-20T05:21:36.674Z,19.20
2018-09-20T05:24:05.847Z,19.50
2018-09-20T05:26:34.818Z,20.10
2018-09-20T05:29:03.732Z,20.80
2018-09-20T05:31:33.148Z,21.40
2018-09-20T05:34:02.127Z,22.10
2018-09-20T05:36:31.011Z,23.10
2018-09-20T05:38:59.939Z,23.80
2018-09-20T05:41:28.896Z,24.60
2018-09-20T05:43:57.855Z,25.40
2018-09-20T05:46:26.799Z,26.10
2018-09-20T05:48:55.763Z,27.10
2018-09-20T05:51:25.191Z,28.10
2018-09-20T05:53:54.075Z,29.20
2018-09-20T05:56:23.073Z,29.90
2018-09-20T05:58:51.963Z,30.10
2018-09-20T06:01:20.856Z,31.10
2018-09-20T06:03:49.842Z,31.50
2018-09-20T06:06:18.798Z,32.00
2018-09-20T06:08:47.689Z,32.20
2018-09-20T06:11:16.648Z,33.20
2018-09-20T06:13:45.534Z,33.30
2018-09-20T06:16:14.444Z,33.70
2018-09-20T06:18:43.413Z,33.80
2018-09-20T06:21:13.145Z,33.30
2018-09-20T06:23:42.067Z,33.40
2018-09-20T06:26:12.034Z,33.50
2018-09-20T06:28:41.622Z,33.30
2018-09-20T06:31:10.586Z,34.10
2018-09-20T06:33:39.539Z,34.40
2018-09-20T06:36:08.545Z,34.80
2018-09-20T06:38:37.497Z,35.20
2018-09-20T06:41:06.554Z,35.80
2018-09-20T06:43:35.437Z,36.90
2018-09-20T06:46:04.397Z,36.70
2018-09-20T06:48:33.409Z,37.00
2018-09-20T06:51:02.343Z,36.70
2018-09-20T06:53:31.256Z,37.00
2018-09-20T06:56:00.239Z,37.20
2018-09-20T06:58:29.131Z,37.20
2018-09-20T07:00:58.063Z,38.10
2018-09-20T07:03:27.039Z,39.20
2018-09-20T07:05:55.983Z,39.30
2018-09-20T07:08:24.959Z,39.80
2018-09-20T07:10:53.918Z,39.60
2018-09-20T07:13:22.839Z,39.40
2018-09-20T07:15:51.765Z,38.40
2018-09-20T07:18:20.750Z,39.10
2018-09-20T07:20:49.683Z,39.80
2018-09-20T07:23:18.670Z,39.70
2018-09-20T07:25:47.761Z,39.70
2018-09-20T07:28:16.671Z,40.30
2018-09-20T07:30:45.601Z,41.00
2018-09-20T07:33:14.651Z,41.20
2018-09-20T07:35:43.611Z,41.20
2018-09-20T07:38:12.497Z,41.80
2018-09-20T07:40:41.427Z,42.30
2018-09-20T07:43:10.416Z,42.60
2018-09-20T07:45:39.538Z,43.20
2018-09-20T07:48:09.054Z,43.80
2018-09-20T07:50:38.179Z,44.40
2018-09-20T07:53:07.330Z,43.50
2018-09-20T07:55:36.683Z,43.60
2018-09-20T07:58:05.673Z,43.50
2018-09-20T08:00:34.568Z,43.80
2018-09-20T08:03:03.529Z,42.40
2018-09-20T08:05:32.423Z,42.70
2018-09-20T08:08:01.682Z,44.00
2018-09-20T08:10:31.780Z,45.20
2018-09-20T08:13:01.143Z,45.00
2018-09-20T08:15:30.232Z,44.90
2018-09-20T08:17:59.188Z,44.80
2018-09-20T08:20:28.124Z,44.60
2018-09-20T08:22:57.030Z,44.30
2018-09-20T08:25:25.990Z,44.90
2018-09-20T08:27:54.917Z,45.10
2018-09-20T08:30:23.845Z,45.00
2018-09-20T08:32:53.024Z,44.50
2018-09-20T08:35:22.322Z,45.20
2018-09-20T08:37:52.171Z,45.90
2018-09-20T08:40:21.245Z,46.30
2018-09-20T08:42:50.386Z,46.70
2018-09-20T08:45:19.574Z,46.20
2018-09-20T08:47:48.841Z,44.90
2018-09-20T08:50:18.024Z,43.90
2018-09-20T08:52:46.920Z,43.50
2018-09-20T08:55:15.859Z,42.60
2018-09-20T08:57:49.999Z,42.50
2018-09-20T09:00:19.000Z,42.60
2018-09-20T09:02:47.967Z,43.00
2018-09-20T09:05:16.880Z,42.60
2018-09-20T09:07:45.870Z,42.60
2018-09-20T09:10:14.861Z,42.30
2018-09-20T09:12:43.763Z,42.20
2018-09-20T09:15:12.720Z,41.10
2018-09-20T09:17:41.615Z,40.80
2018-09-20T09:20:10.635Z,40.90
2018-09-20T09:22:39.590Z,39.20
2018-09-20T09:25:08.559Z,37.10
2018-09-20T09:27:37.597Z,35.20
2018-09-20T09:30:07.003Z,34.10
2018-09-20T09:32:35.883Z,32.90
2018-09-20T09:35:04.846Z,33.00
2018-09-20T09:37:33.777Z,32.80
2018-09-20T09:40:02.687Z,32.70
2018-09-20T09:42:31.583Z,32.70
2018-09-20T09:45:00.531Z,32.70
2018-09-20T09:47:29.422Z,32.30
2018-09-20T09:49:58.295Z,32.30
2018-09-20T09:52:27.255Z,32.10
2018-09-20T09:54:56.191Z,31.80
2018-09-20T09:57:25.163Z,31.60
2018-09-20T09:59:54.139Z,31.20
2018-09-20T10:02:23.061Z,31.10
2018-09-20T10:04:52.002Z,30.80
2018-09-20T10:07:20.992Z,30.50
2018-09-20T10:09:49.944Z,30.50
2018-09-20T10:12:18.830Z,30.70
2018-09-20T10:14:47.760Z,30.80
2018-09-20T10:17:16.665Z,30.80
2018-09-20T10:19:45.562Z,30.70
2018-09-20T10:22:14.510Z,30.60
2018-09-20T10:24:43.398Z,30.60
2018-09-20T10:27:12.295Z,30.70
2018-09-20T10:29:41.300Z,30.50
2018-09-20T10:32:10.456Z,30.30
2018-09-20T10:34:39.369Z,30.40
2018-09-20T10:37:08.355Z,30.50
2018-09-20T10:39:37.243Z,30.60
2018-09-20T10:42:06.136Z,30.80
2018-09-20T10:44:35.082Z,30.90
2018-09-20T10:47:04.068Z,30.90
2018-09-20T10:49:32.975Z,31.00
2018-09-20T10:52:01.974Z,31.00
2018-09-20T10:54:30.892Z,31.00
2018-09-20T10:56:59.857Z,30.90
2018-09-20T10:59:28.828Z,30.80
2018-09-20T11:01:57.759Z,30.90
2018-09-20T11:04:26.705Z,30.90
2018-09-20T11:06:55.647Z,30.80
2018-09-20T11:09:24.527Z,30.80
2018-09-20T11:11:53.452Z,30.60
2018-09-20T11:14:22.451Z,30.50
2018-09-20T11:16:51.366Z,30.60
2018-09-20T11:19:20.289Z,30.80
2018-09-20T11:21:49.346Z,30.90
2018-09-20T11:24:18.242Z,30.90
2018-09-20T11:26:47.134Z,30.80
2018-09-20T11:29:16.225Z,30.90
2018-09-20T11:31:45.144Z,31.10
2018-09-20T11:34:14.020Z,30.90
2018-09-20T11:36:43.643Z,30.80
2018-09-20T11:39:13.799Z,30.70
2018-09-20T11:41:42.730Z,30.60
2018-09-20T11:44:11.706Z,30.70
2018-09-20T11:46:40.687Z,30.70
2018-09-20T11:49:09.591Z,30.90
2018-09-20T11:51:38.590Z,31.00
2018-09-20T11:54:07.491Z,31.00
2018-09-20T11:56:36.419Z,31.10
2018-09-20T11:59:05.491Z,31.10
2018-09-20T12:01:34.431Z,31.10
2018-09-20T12:04:03.304Z,30.80
2018-09-20T12:06:32.256Z,30.70
2018-09-20T12:09:01.189Z,30.70
2018-09-20T12:11:30.090Z,30.80
2018-09-20T12:13:59.092Z,30.80
2018-09-20T12:16:28.059Z,30.90
2018-09-20T12:18:56.955Z,31.10
2018-09-20T12:21:26.018Z,31.10
2018-09-20T12:23:54.964Z,30.90
2018-09-20T12:26:23.886Z,30.90
2018-09-20T12:28:52.924Z,30.90
2018-09-20T12:31:21.877Z,30.80
2018-09-20T12:33:50.796Z,30.80
2018-09-20T12:36:19.912Z,30.70
2018-09-20T12:38:48.961Z,30.70
2018-09-20T12:41:17.892Z,30.70
2018-09-20T12:43:46.947Z,30.60
2018-09-20T12:46:15.900Z,30.80
2018-09-20T12:48:44.883Z,30.70
2018-09-20T12:51:13.885Z,30.60
2018-09-20T12:53:42.877Z,30.70
2018-09-20T12:56:11.921Z,30.80
2018-09-20T12:58:42.555Z,30.60
2018-09-20T13:01:11.458Z,30.70
2018-09-20T13:03:40.426Z,30.70
2018-09-20T13:06:09.871Z,30.70
2018-09-20T13:08:38.803Z,30.60
2018-09-20T13:11:07.851Z,30.50
2018-09-20T13:13:37.380Z,30.50
2018-09-20T13:16:06.342Z,30.50
2018-09-20T13:18:35.224Z,30.50
2018-09-20T13:21:04.283Z,30.40
2018-09-20T13:23:33.185Z,30.50
2018-09-20T13:26:02.109Z,30.50
2018-09-20T13:28:31.062Z,30.40
2018-09-20T13:31:00.024Z,30.30
2018-09-20T13:33:29.046Z,30.20
2018-09-20T13:35:58.073Z,30.10
2018-09-20T13:38:27.030Z,30.00
2018-09-20T13:40:56.027Z,30.10
2018-09-20T13:43:25.016Z,30.20
2018-09-20T13:45:53.950Z,30.20
2018-09-20T13:48:23.033Z,30.30
2018-09-20T13:50:52.059Z,30.40
2018-09-20T13:53:20.979Z,30.40
2018-09-20T13:55:49.883Z,30.30
2018-09-20T13:58:18.892Z,30.10
2018-09-20T14:00:47.907Z,29.80
2018-09-20T14:03:16.860Z,29.80
2018-09-20T14:05:45.804Z,29.80
2018-09-20T14:08:14.855Z,29.90
2018-09-20T14:10:43.788Z,29.90
2018-09-20T14:13:12.736Z,29.90
2018-09-20T14:15:41.651Z,29.90
2018-09-20T14:18:10.575Z,29.90
2018-09-20T14:20:39.607Z,29.90
2018-09-20T14:23:08.507Z,29.90
2018-09-20T14:25:37.402Z,29.80
2018-09-20T14:28:06.423Z,29.70
2018-09-20T14:30:35.371Z,29.80
2018-09-20T14:33:04.315Z,29.80
2018-09-20T14:35:33.239Z,29.80
2018-09-20T14:38:02.202Z,29.70
2018-09-20T14:41:01.204Z,29.70
2018-09-20T14:43:30.099Z,29.70
2018-09-20T14:45:58.964Z,29.70
2018-09-20T14:48:27.924Z,29.70
2018-09-20T14:50:56.854Z,29.60
2018-09-20T14:53:25.825Z,29.60
2018-09-20T14:55:54.839Z,29.50
2018-09-20T14:58:23.723Z,29.60
2018-09-20T15:00:52.633Z,29.60
2018-09-20T15:03:21.635Z,29.50
2018-09-20T15:05:50.520Z,29.30
2018-09-20T15:08:19.427Z,29.20
2018-09-20T15:10:48.422Z,29.20
2018-09-20T15:13:17.360Z,29.10
2018-09-20T15:15:46.283Z,29.00
2018-09-20T15:18:15.420Z,29.00
2018-09-20T15:20:44.337Z,29.10
2018-09-20T15:23:13.234Z,29.00
2018-09-20T15:25:42.220Z,29.00
2018-09-20T15:28:11.164Z,29.00
2018-09-20T15:30:41.568Z,29.10
2018-09-20T15:33:10.499Z,29.00
2018-09-20T15:35:39.362Z,29.00
2018-09-20T15:38:08.236Z,28.80
2018-09-20T15:40:37.159Z,28.70
2018-09-20T15:43:06.100Z,28.60
2018-09-20T15:45:34.978Z,28.50
2018-09-20T15:48:04.202Z,28.50
2018-09-20T15:50:33.108Z,28.40
2018-09-20T15:53:02.050Z,28.40
2018-09-20T15:55:31.026Z,28.40
2018-09-20T15:57:59.980Z,28.40
2018-09-20T16:00:29.076Z,28.40
2018-09-20T16:02:58.154Z,28.30
2018-09-20T16:05:27.128Z,28.30
2018-09-20T16:07:56.039Z,28.30
2018-09-20T16:10:25.144Z,28.20
2018-09-20T16:12:54.036Z,28.10
2018-09-20T16:15:22.983Z,28.00
2018-09-20T16:17:51.944Z,28.00
2018-09-20T16:20:20.957Z,27.80
2018-09-20T16:22:50.216Z,27.80
2018-09-20T16:25:19.299Z,27.70
2018-09-20T16:27:48.320Z,27.70
2018-09-20T16:30:31.706Z,27.60
2018-09-20T16:33:29.604Z,27.50
2018-09-20T16:36:11.491Z,27.40
2018-09-20T16:38:48.328Z,27.20
2018-09-20T16:41:22.008Z,27.10
2018-09-20T16:43:50.948Z,26.90
2018-09-20T16:46:21.702Z,26.90
2018-09-20T16:48:50.626Z,26.80
2018-09-20T16:51:20.140Z,26.60
2018-09-20T16:53:49.080Z,26.50
2018-09-20T16:56:17.993Z,26.40
2018-09-20T16:58:50.228Z,26.30
2018-09-20T17:01:19.910Z,26.20
2018-09-20T17:03:48.904Z,26.10
2018-09-20T17:06:18.552Z,26.00
2018-09-20T17:08:48.294Z,25.90
2018-09-20T17:11:17.380Z,25.90
2018-09-20T17:13:46.465Z,25.80
2018-09-20T17:16:15.413Z,25.70
2018-09-20T17:18:44.405Z,25.60
2018-09-20T17:21:14.474Z,25.60
2018-09-20T17:23:43.394Z,25.60
2018-09-20T17:26:13.145Z,25.50
2018-09-20T17:28:42.088Z,25.50
2018-09-20T17:31:11.019Z,25.40
2018-09-20T17:33:40.004Z,25.30
2018-09-20T17:36:09.275Z,25.40
2018-09-20T17:38:39.851Z,25.40
2018-09-20T17:41:14.643Z,25.30
2018-09-20T17:43:55.855Z,25.20
2018-09-20T17:46:25.093Z,25.20
2018-09-20T17:48:54.005Z,25.10
2018-09-20T17:51:23.272Z,25.00
2018-09-20T17:53:52.564Z,25.00
2018-09-20T17:56:22.522Z,24.90
2018-09-20T17:58:52.007Z,24.80
2018-09-20T18:01:20.964Z,24.80
2018-09-20T18:03:49.837Z,24.70
2018-09-20T18:06:18.818Z,24.80
2018-09-20T18:08:47.769Z,24.70
2018-09-20T18:11:16.710Z,24.70
2018-09-20T18:13:45.877Z,24.50
2018-09-20T18:16:14.842Z,24.40
2018-09-20T18:18:43.780Z,24.40
2018-09-20T18:21:12.668Z,24.30
2018-09-20T18:23:41.885Z,24.20
2018-09-20T18:26:12.159Z,24.20
2018-09-20T18:28:41.115Z,24.10
2018-09-20T18:31:10.650Z,24.10
2018-09-20T18:33:39.632Z,24.10
2018-09-20T18:36:08.695Z,24.10
2018-09-20T18:38:37.618Z,24.10
2018-09-20T18:41:06.537Z,24.00
2018-09-20T18:43:35.540Z,24.00
2018-09-20T18:46:04.484Z,23.90
2018-09-20T18:48:33.471Z,23.90
2018-09-20T18:51:02.415Z,23.80
2018-09-20T18:53:31.301Z,23.70
2018-09-20T18:56:00.228Z,23.60
2018-09-20T18:58:29.152Z,23.60
2018-09-20T19:00:58.105Z,23.60
2018-09-20T19:03:27.018Z,23.60
2018-09-20T19:05:56.063Z,23.50
2018-09-20T19:08:25.010Z,23.40
2018-09-20T19:10:53.963Z,23.40
2018-09-20T19:13:22.975Z,23.40
2018-09-20T19:15:52.220Z,23.40
2018-09-20T19:18:21.269Z,23.40
2018-09-20T19:20:50.425Z,23.30
2018-09-20T19:23:19.311Z,23.20
2018-09-20T19:25:54.610Z,23.10
2018-09-20T19:28:25.263Z,23.10
2018-09-20T19:30:54.195Z,23.00
2018-09-20T19:33:23.163Z,23.00
2018-09-20T19:35:52.170Z,22.90
2018-09-20T19:38:21.187Z,22.90
2018-09-20T19:40:50.180Z,22.80
2018-09-20T19:43:20.695Z,22.80
2018-09-20T19:45:58.047Z,22.70
2018-09-20T19:48:27.573Z,22.70
2018-09-20T19:51:00.402Z,22.60
2018-09-20T19:53:32.532Z,22.60
2018-09-20T19:56:02.689Z,22.50
2018-09-20T19:58:32.242Z,22.50
2018-09-20T20:01:01.496Z,22.40
2018-09-20T20:03:30.447Z,22.40
2018-09-20T20:06:00.156Z,22.30
2018-09-20T20:08:31.239Z,22.20
2018-09-20T20:11:01.645Z,22.20
2018-09-20T20:13:30.915Z,22.20
2018-09-20T20:16:00.132Z,22.10
2018-09-20T20:18:29.036Z,22.00
2018-09-20T20:20:58.164Z,22.00
2018-09-20T20:23:27.063Z,21.80
2018-09-20T20:25:56.120Z,21.80
2018-09-20T20:28:25.083Z,21.80
2018-09-20T20:30:54.181Z,21.70
2018-09-20T20:33:24.357Z,21.60
2018-09-20T20:35:54.536Z,21.60
2018-09-20T20:38:24.882Z,21.70
2018-09-20T20:40:53.822Z,21.60
2018-09-20T20:43:22.880Z,21.50
2018-09-20T20:45:52.328Z,21.50
2018-09-20T20:48:21.440Z,21.40
2018-09-20T20:50:51.049Z,21.30
2018-09-20T20:53:19.981Z,21.40
2018-09-20T20:55:48.897Z,21.40
2018-09-20T20:58:17.909Z,21.30
2018-09-20T21:00:46.852Z,21.30
2018-09-20T21:03:19.031Z,21.30
2018-09-20T21:05:49.457Z,21.20
2018-09-20T21:08:18.683Z,21.10
2018-09-20T21:10:47.711Z,21.10
2018-09-20T21:13:16.722Z,21.00
2018-09-20T21:15:45.649Z,21.00
2018-09-20T21:18:14.566Z,21.00
2018-09-20T21:20:43.532Z,20.90
2018-09-20T21:23:12.471Z,20.80
2018-09-20T21:25:41.591Z,20.70
2018-09-20T21:28:10.556Z,20.70
2018-09-20T21:30:39.472Z,20.80
2018-09-20T21:33:08.370Z,20.80
2018-09-20T21:35:37.422Z,20.80
2018-09-20T21:38:06.399Z,20.70
2018-09-20T21:40:35.338Z,20.70
2018-09-20T21:43:04.347Z,20.70
2018-09-20T21:45:33.263Z,20.70
2018-09-20T21:48:02.224Z,20.70
2018-09-20T21:50:31.152Z,20.60
2018-09-20T21:53:00.061Z,20.70
2018-09-20T21:55:28.972Z,20.70
2018-09-20T21:57:57.963Z,20.60
2018-09-20T22:00:27.013Z,20.60
2018-09-20T22:03:02.037Z,20.50
2018-09-20T22:05:37.741Z,20.50
2018-09-20T22:08:06.806Z,20.40
2018-09-20T22:10:35.813Z,20.30
2018-09-20T22:13:04.849Z,20.30
2018-09-20T22:15:34.413Z,20.30
2018-09-20T22:18:03.448Z,20.30
2018-09-20T22:20:32.494Z,20.20
2018-09-20T22:23:01.546Z,20.20
2018-09-20T22:25:30.623Z,20.20
2018-09-20T22:27:59.579Z,20.20
2018-09-20T22:30:28.603Z,20.10
2018-09-20T22:32:57.712Z,20.10
2018-09-20T22:35:26.853Z,20.00
2018-09-20T22:37:55.917Z,20.00
2018-09-20T22:40:24.981Z,20.00
2018-09-20T22:42:53.962Z,19.80
2018-09-20T22:45:23.076Z,19.80
2018-09-20T22:47:52.049Z,19.80
2018-09-20T22:50:21.067Z,19.80
2018-09-20T22:52:50.123Z,19.80
2018-09-20T22:55:19.108Z,19.80
2018-09-20T22:57:48.110Z,19.70
2018-09-20T23:00:21.346Z,19.60
2018-09-20T23:02:51.962Z,19.60
2018-09-20T23:05:21.065Z,19.50
2018-09-20T23:07:50.087Z,19.50
2018-09-20T23:10:19.053Z,19.50
2018-09-20T23:12:48.087Z,19.40
2018-09-20T23:15:17.050Z,19.50
2018-09-20T23:17:46.079Z,19.50
2018-09-20T23:20:15.338Z,19.40
2018-09-20T23:22:44.334Z,19.40
2018-09-20T23:25:13.329Z,19.40
2018-09-20T23:27:43.102Z,19.40
2018-09-20T23:30:12.091Z,19.40
2018-09-20T23:32:41.114Z,19.30
2018-09-20T23:35:10.226Z,19.30
2018-09-20T23:37:39.204Z,19.30
2018-09-20T23:40:08.229Z,19.30
2018-09-20T23:42:37.274Z,19.20
2018-09-20T23:45:06.293Z,19.20
2018-09-20T23:47:35.382Z,19.20
2018-09-20T23:50:04.578Z,19.20
2018-09-20T23:52:33.651Z,19.10
2018-09-20T23:55:02.737Z,19.10
2018-09-20T23:57:31.824Z,19.00
